sensor_id;sensor_type;location;lat;lon;timestamp;P1;P2;P0
21358;PMS7003;13506;50.852;20.632;2023-07-31T00:01:06;8.40;8.40;4.20
21358;PMS7003;13506;50.852;20.632;2023-07-31T00:03:36;5.80;5.60;3.00
21358;PMS7003;13506;50.852;20.632;2023-07-31T00:06:04;7.60;7.60;4.00
21358;PMS7003;13506;50.852;20.632;2023-07-31T00:08:32;6.80;6.00;3.40
21358;PMS7003;13506;50.852;20.632;2023-07-31T00:11:01;7.60;5.20;2.80
21358;PMS7003;13506;50.852;20.632;2023-07-31T00:13:29;6.80;6.80;3.80
21358;PMS7003;13506;50.852;20.632;2023-07-31T00:15:57;9.20;7.80;3.80
21358;PMS7003;13506;50.852;20.632;2023-07-31T00:18:26;6.00;6.00;3.80
21358;PMS7003;13506;50.852;20.632;2023-07-31T00:20:55;6.60;5.20;3.20
21358;PMS7003;13506;50.852;20.632;2023-07-31T00:23:23;6.40;6.40;4.00
21358;PMS7003;13506;50.852;20.632;2023-07-31T00:25:51;7.40;7.00;4.00
21358;PMS7003;13506;50.852;20.632;2023-07-31T00:28:19;6.80;6.80;4.00
21358;PMS7003;13506;50.852;20.632;2023-07-31T00:30:47;8.00;6.80;4.40
21358;PMS7003;13506;50.852;20.632;2023-07-31T00:33:15;10.00;8.20;4.60
21358;PMS7003;13506;50.852;20.632;2023-07-31T00:35:43;7.80;7.80;3.80
21358;PMS7003;13506;50.852;20.632;2023-07-31T00:38:13;6.60;6.60;3.20
21358;PMS7003;13506;50.852;20.632;2023-07-31T00:40:40;9.00;7.00;4.40
21358;PMS7003;13506;50.852;20.632;2023-07-31T00:43:09;10.20;8.60;4.00
21358;PMS7003;13506;50.852;20.632;2023-07-31T00:45:37;6.80;6.40;4.00
21358;PMS7003;13506;50.852;20.632;2023-07-31T00:48:06;8.40;6.60;3.80
21358;PMS7003;13506;50.852;20.632;2023-07-31T00:50:34;9.20;7.00;4.00
21358;PMS7003;13506;50.852;20.632;2023-07-31T00:53:03;7.80;7.80;4.60
21358;PMS7003;13506;50.852;20.632;2023-07-31T00:55:34;7.60;6.80;3.80
21358;PMS7003;13506;50.852;20.632;2023-07-31T00:58:02;6.60;6.60;3.00
21358;PMS7003;13506;50.852;20.632;2023-07-31T01:00:30;8.20;6.60;3.80
21358;PMS7003;13506;50.852;20.632;2023-07-31T01:02:58;7.00;6.60;4.00
21358;PMS7003;13506;50.852;20.632;2023-07-31T01:05:29;8.40;8.00;4.80
21358;PMS7003;13506;50.852;20.632;2023-07-31T01:08:04;7.40;7.00;4.00
21358;PMS7003;13506;50.852;20.632;2023-07-31T01:10:45;9.20;7.40;4.00
21358;PMS7003;13506;50.852;20.632;2023-07-31T01:13:18;7.80;7.00;4.00
21358;PMS7003;13506;50.852;20.632;2023-07-31T01:15:48;7.00;7.00;4.00
21358;PMS7003;13506;50.852;20.632;2023-07-31T01:18:16;7.00;7.00;3.40
21358;PMS7003;13506;50.852;20.632;2023-07-31T01:20:50;9.80;8.80;5.00
21358;PMS7003;13506;50.852;20.632;2023-07-31T01:23:42;8.00;8.00;4.60
21358;PMS7003;13506;50.852;20.632;2023-07-31T01:26:32;10.60;9.20;5.60
21358;PMS7003;13506;50.852;20.632;2023-07-31T01:29:03;9.60;8.00;5.00
21358;PMS7003;13506;50.852;20.632;2023-07-31T01:31:36;12.60;11.80;5.80
21358;PMS7003;13506;50.852;20.632;2023-07-31T01:34:06;10.00;9.60;5.00
21358;PMS7003;13506;50.852;20.632;2023-07-31T01:36:36;12.00;8.80;5.00
21358;PMS7003;13506;50.852;20.632;2023-07-31T01:39:05;10.60;10.60;6.00
21358;PMS7003;13506;50.852;20.632;2023-07-31T01:41:34;8.40;8.40;4.80
21358;PMS7003;13506;50.852;20.632;2023-07-31T01:44:02;9.00;8.20;4.80
21358;PMS7003;13506;50.852;20.632;2023-07-31T01:46:31;7.20;7.20;4.00
21358;PMS7003;13506;50.852;20.632;2023-07-31T01:48:59;11.00;11.00;5.00
21358;PMS7003;13506;50.852;20.632;2023-07-31T01:51:27;7.80;7.00;4.20
21358;PMS7003;13506;50.852;20.632;2023-07-31T01:53:59;9.40;7.20;4.20
21358;PMS7003;13506;50.852;20.632;2023-07-31T01:56:27;9.60;8.80;5.00
21358;PMS7003;13506;50.852;20.632;2023-07-31T01:58:57;11.20;8.00;4.60
21358;PMS7003;13506;50.852;20.632;2023-07-31T02:01:25;10.20;8.40;5.00
21358;PMS7003;13506;50.852;20.632;2023-07-31T02:03:53;10.60;9.00;5.00
21358;PMS7003;13506;50.852;20.632;2023-07-31T02:06:22;10.60;9.00;5.00
21358;PMS7003;13506;50.852;20.632;2023-07-31T02:08:50;9.80;7.00;4.00
21358;PMS7003;13506;50.852;20.632;2023-07-31T02:11:18;10.40;9.60;5.40
21358;PMS7003;13506;50.852;20.632;2023-07-31T02:13:49;7.00;6.60;3.60
21358;PMS7003;13506;50.852;20.632;2023-07-31T02:16:18;10.20;9.20;5.60
21358;PMS7003;13506;50.852;20.632;2023-07-31T02:18:47;10.40;9.80;6.20
21358;PMS7003;13506;50.852;20.632;2023-07-31T02:21:14;12.60;11.00;6.40
21358;PMS7003;13506;50.852;20.632;2023-07-31T02:23:43;10.80;9.40;4.00
21358;PMS7003;13506;50.852;20.632;2023-07-31T02:26:11;11.00;9.20;5.00
21358;PMS7003;13506;50.852;20.632;2023-07-31T02:28:39;8.40;6.80;4.60
21358;PMS7003;13506;50.852;20.632;2023-07-31T02:31:08;9.00;9.00;5.00
21358;PMS7003;13506;50.852;20.632;2023-07-31T02:33:38;7.20;7.20;4.00
21358;PMS7003;13506;50.852;20.632;2023-07-31T02:36:06;9.00;9.00;5.00
21358;PMS7003;13506;50.852;20.632;2023-07-31T02:38:34;9.40;9.40;5.00
21358;PMS7003;13506;50.852;20.632;2023-07-31T02:41:02;12.00;9.60;5.20
21358;PMS7003;13506;50.852;20.632;2023-07-31T02:43:30;8.00;8.00;4.40
21358;PMS7003;13506;50.852;20.632;2023-07-31T02:45:59;10.40;9.40;5.00
21358;PMS7003;13506;50.852;20.632;2023-07-31T02:48:27;10.00;8.80;5.00
21358;PMS7003;13506;50.852;20.632;2023-07-31T02:50:56;10.40;8.60;5.60
21358;PMS7003;13506;50.852;20.632;2023-07-31T02:53:25;9.00;8.80;5.00
21358;PMS7003;13506;50.852;20.632;2023-07-31T02:55:53;10.80;9.60;5.00
21358;PMS7003;13506;50.852;20.632;2023-07-31T02:58:21;13.80;11.80;5.00
21358;PMS7003;13506;50.852;20.632;2023-07-31T03:00:49;9.00;7.80;4.40
21358;PMS7003;13506;50.852;20.632;2023-07-31T03:03:17;10.00;8.20;4.00
21358;PMS7003;13506;50.852;20.632;2023-07-31T03:05:45;10.80;8.80;5.40
21358;PMS7003;13506;50.852;20.632;2023-07-31T03:08:14;11.60;9.80;5.80
21358;PMS7003;13506;50.852;20.632;2023-07-31T03:10:42;11.20;9.20;4.00
21358;PMS7003;13506;50.852;20.632;2023-07-31T03:13:11;13.40;12.00;5.80
21358;PMS7003;13506;50.852;20.632;2023-07-31T03:15:41;11.40;11.00;6.20
21358;PMS7003;13506;50.852;20.632;2023-07-31T03:18:10;12.00;10.00;5.00
21358;PMS7003;13506;50.852;20.632;2023-07-31T03:20:41;10.60;9.20;5.60
21358;PMS7003;13506;50.852;20.632;2023-07-31T03:23:10;10.80;9.00;4.60
21358;PMS7003;13506;50.852;20.632;2023-07-31T03:25:41;11.80;11.00;6.00
21358;PMS7003;13506;50.852;20.632;2023-07-31T03:28:22;9.80;9.00;5.00
21358;PMS7003;13506;50.852;20.632;2023-07-31T03:30:50;9.60;6.80;4.00
21358;PMS7003;13506;50.852;20.632;2023-07-31T03:33:18;12.00;10.60;6.20
21358;PMS7003;13506;50.852;20.632;2023-07-31T03:35:47;13.00;11.00;5.80
21358;PMS7003;13506;50.852;20.632;2023-07-31T03:38:15;11.60;11.20;7.00
21358;PMS7003;13506;50.852;20.632;2023-07-31T03:40:45;12.00;11.20;7.00
21358;PMS7003;13506;50.852;20.632;2023-07-31T03:43:13;13.00;10.80;6.80
21358;PMS7003;13506;50.852;20.632;2023-07-31T03:45:42;12.80;12.00;7.00
21358;PMS7003;13506;50.852;20.632;2023-07-31T03:48:11;12.80;12.80;6.60
21358;PMS7003;13506;50.852;20.632;2023-07-31T03:50:40;13.80;10.00;7.00
21358;PMS7003;13506;50.852;20.632;2023-07-31T03:53:08;10.00;9.60;5.60
21358;PMS7003;13506;50.852;20.632;2023-07-31T03:55:37;10.40;10.40;6.20
21358;PMS7003;13506;50.852;20.632;2023-07-31T03:58:07;13.00;10.00;5.00
21358;PMS7003;13506;50.852;20.632;2023-07-31T04:00:35;9.40;9.20;6.00
21358;PMS7003;13506;50.852;20.632;2023-07-31T04:03:03;11.00;9.20;5.60
21358;PMS7003;13506;50.852;20.632;2023-07-31T04:05:31;13.00;12.00;7.00
21358;PMS7003;13506;50.852;20.632;2023-07-31T04:08:00;8.00;8.00;5.00
21358;PMS7003;13506;50.852;20.632;2023-07-31T04:10:28;12.40;10.80;6.40
21358;PMS7003;13506;50.852;20.632;2023-07-31T04:12:59;12.40;10.40;5.60
21358;PMS7003;13506;50.852;20.632;2023-07-31T04:15:28;9.60;8.60;4.80
21358;PMS7003;13506;50.852;20.632;2023-07-31T04:17:56;12.00;11.40;6.00
21358;PMS7003;13506;50.852;20.632;2023-07-31T04:20:24;13.60;9.80;6.00
21358;PMS7003;13506;50.852;20.632;2023-07-31T04:22:53;14.80;12.60;6.80
21358;PMS7003;13506;50.852;20.632;2023-07-31T04:25:20;11.00;8.60;5.00
21358;PMS7003;13506;50.852;20.632;2023-07-31T04:27:48;10.20;9.80;6.00
21358;PMS7003;13506;50.852;20.632;2023-07-31T04:30:16;12.00;11.20;7.00
21358;PMS7003;13506;50.852;20.632;2023-07-31T04:32:46;11.60;10.00;5.60
21358;PMS7003;13506;50.852;20.632;2023-07-31T04:35:14;8.80;8.20;4.80
21358;PMS7003;13506;50.852;20.632;2023-07-31T04:37:43;10.60;10.00;5.00
21358;PMS7003;13506;50.852;20.632;2023-07-31T04:40:14;9.20;8.40;5.00
21358;PMS7003;13506;50.852;20.632;2023-07-31T04:42:42;12.00;11.00;6.20
21358;PMS7003;13506;50.852;20.632;2023-07-31T04:45:11;8.20;8.20;4.00
21358;PMS7003;13506;50.852;20.632;2023-07-31T04:47:40;11.60;11.00;5.60
21358;PMS7003;13506;50.852;20.632;2023-07-31T04:50:09;10.00;8.00;4.80
21358;PMS7003;13506;50.852;20.632;2023-07-31T04:52:37;12.20;10.20;5.60
21358;PMS7003;13506;50.852;20.632;2023-07-31T04:55:05;10.00;9.80;5.00
21358;PMS7003;13506;50.852;20.632;2023-07-31T04:57:34;10.60;8.40;5.00
21358;PMS7003;13506;50.852;20.632;2023-07-31T05:00:02;11.60;10.40;5.20
21358;PMS7003;13506;50.852;20.632;2023-07-31T05:02:31;12.80;12.60;7.20
21358;PMS7003;13506;50.852;20.632;2023-07-31T05:04:58;11.00;10.20;6.00
21358;PMS7003;13506;50.852;20.632;2023-07-31T05:07:28;10.60;9.40;5.60
21358;PMS7003;13506;50.852;20.632;2023-07-31T05:09:56;11.00;9.80;5.40
21358;PMS7003;13506;50.852;20.632;2023-07-31T05:12:24;11.20;7.60;4.60
21358;PMS7003;13506;50.852;20.632;2023-07-31T05:14:52;13.20;9.20;5.00
21358;PMS7003;13506;50.852;20.632;2023-07-31T05:17:20;12.20;11.20;5.00
21358;PMS7003;13506;50.852;20.632;2023-07-31T05:19:48;10.40;10.40;6.00
21358;PMS7003;13506;50.852;20.632;2023-07-31T05:22:16;9.60;9.00;5.20
21358;PMS7003;13506;50.852;20.632;2023-07-31T05:24:46;9.60;9.60;5.00
21358;PMS7003;13506;50.852;20.632;2023-07-31T05:27:14;9.40;9.00;5.20
21358;PMS7003;13506;50.852;20.632;2023-07-31T05:29:44;7.80;7.80;4.00
21358;PMS7003;13506;50.852;20.632;2023-07-31T05:32:12;8.80;7.40;4.40
21358;PMS7003;13506;50.852;20.632;2023-07-31T05:34:40;7.40;7.40;4.40
21358;PMS7003;13506;50.852;20.632;2023-07-31T05:37:09;9.00;8.00;4.80
21358;PMS7003;13506;50.852;20.632;2023-07-31T05:39:37;9.00;9.00;5.00
21358;PMS7003;13506;50.852;20.632;2023-07-31T05:42:07;11.20;10.60;6.00
21358;PMS7003;13506;50.852;20.632;2023-07-31T05:44:35;8.20;8.20;4.80
21358;PMS7003;13506;50.852;20.632;2023-07-31T05:47:04;10.40;9.00;5.00
21358;PMS7003;13506;50.852;20.632;2023-07-31T05:49:32;9.20;8.60;4.80
21358;PMS7003;13506;50.852;20.632;2023-07-31T05:52:00;9.80;9.20;4.80
21358;PMS7003;13506;50.852;20.632;2023-07-31T05:54:29;8.40;7.00;5.00
21358;PMS7003;13506;50.852;20.632;2023-07-31T05:56:58;8.00;8.00;4.00
21358;PMS7003;13506;50.852;20.632;2023-07-31T05:59:27;7.80;7.20;4.20
21358;PMS7003;13506;50.852;20.632;2023-07-31T06:01:58;10.80;7.80;4.00
21358;PMS7003;13506;50.852;20.632;2023-07-31T06:04:27;7.40;7.20;5.00
21358;PMS7003;13506;50.852;20.632;2023-07-31T06:06:55;10.60;7.20;4.40
21358;PMS7003;13506;50.852;20.632;2023-07-31T06:09:26;7.40;7.40;4.00
21358;PMS7003;13506;50.852;20.632;2023-07-31T06:11:54;8.00;8.00;4.40
21358;PMS7003;13506;50.852;20.632;2023-07-31T06:14:21;7.20;7.20;4.00
21358;PMS7003;13506;50.852;20.632;2023-07-31T06:16:51;8.80;8.80;4.20
21358;PMS7003;13506;50.852;20.632;2023-07-31T06:19:19;8.20;7.60;4.40
21358;PMS7003;13506;50.852;20.632;2023-07-31T06:21:47;9.20;8.00;4.60
21358;PMS7003;13506;50.852;20.632;2023-07-31T06:24:15;9.00;8.00;5.00
21358;PMS7003;13506;50.852;20.632;2023-07-31T06:26:46;7.60;7.60;4.00
21358;PMS7003;13506;50.852;20.632;2023-07-31T06:29:14;9.60;8.80;4.60
21358;PMS7003;13506;50.852;20.632;2023-07-31T06:31:42;9.20;6.80;3.80
21358;PMS7003;13506;50.852;20.632;2023-07-31T06:34:11;8.20;7.00;4.00
21358;PMS7003;13506;50.852;20.632;2023-07-31T06:36:40;9.20;6.80;3.80
21358;PMS7003;13506;50.852;20.632;2023-07-31T06:39:07;9.40;7.00;3.60
21358;PMS7003;13506;50.852;20.632;2023-07-31T06:41:37;8.80;8.00;4.00
21358;PMS7003;13506;50.852;20.632;2023-07-31T06:44:09;9.60;8.00;4.40
21358;PMS7003;13506;50.852;20.632;2023-07-31T06:46:38;7.00;6.00;3.60
21358;PMS7003;13506;50.852;20.632;2023-07-31T06:49:06;8.80;7.60;3.80
21358;PMS7003;13506;50.852;20.632;2023-07-31T06:51:36;11.40;7.80;5.00
21358;PMS7003;13506;50.852;20.632;2023-07-31T06:54:04;8.20;7.80;3.80
21358;PMS7003;13506;50.852;20.632;2023-07-31T06:56:32;8.00;7.00;4.60
21358;PMS7003;13506;50.852;20.632;2023-07-31T06:59:00;8.80;8.80;5.60
21358;PMS7003;13506;50.852;20.632;2023-07-31T07:01:28;33.75;28.00;18.75
21358;PMS7003;13506;50.852;20.632;2023-07-31T07:03:56;49.00;35.50;22.00
21358;PMS7003;13506;50.852;20.632;2023-07-31T07:06:25;13.00;12.00;6.80
21358;PMS7003;13506;50.852;20.632;2023-07-31T07:08:54;10.20;10.00;6.60
21358;PMS7003;13506;50.852;20.632;2023-07-31T07:11:22;8.20;7.80;4.20
21358;PMS7003;13506;50.852;20.632;2023-07-31T07:13:50;11.40;9.00;5.00
21358;PMS7003;13506;50.852;20.632;2023-07-31T07:16:18;10.60;9.40;4.80
21358;PMS7003;13506;50.852;20.632;2023-07-31T07:18:46;8.40;8.40;5.00
21358;PMS7003;13506;50.852;20.632;2023-07-31T07:21:14;7.80;7.80;5.00
21358;PMS7003;13506;50.852;20.632;2023-07-31T07:23:43;11.00;9.80;7.00
21358;PMS7003;13506;50.852;20.632;2023-07-31T07:26:13;12.00;9.20;4.80
21358;PMS7003;13506;50.852;20.632;2023-07-31T07:28:41;9.80;9.20;5.80
21358;PMS7003;13506;50.852;20.632;2023-07-31T07:31:09;10.40;9.40;5.60
21358;PMS7003;13506;50.852;20.632;2023-07-31T07:33:37;9.00;7.00;4.00
21358;PMS7003;13506;50.852;20.632;2023-07-31T07:36:05;12.40;9.40;6.00
21358;PMS7003;13506;50.852;20.632;2023-07-31T07:38:35;10.20;10.00;6.60
21358;PMS7003;13506;50.852;20.632;2023-07-31T07:41:05;8.80;8.80;5.80
21358;PMS7003;13506;50.852;20.632;2023-07-31T07:43:34;9.60;7.40;4.80
21358;PMS7003;13506;50.852;20.632;2023-07-31T07:46:02;15.40;14.80;8.40
21358;PMS7003;13506;50.852;20.632;2023-07-31T07:48:30;10.60;9.60;6.00
21358;PMS7003;13506;50.852;20.632;2023-07-31T07:50:59;13.80;11.00;6.00
21358;PMS7003;13506;50.852;20.632;2023-07-31T07:53:27;9.60;9.20;5.00
21358;PMS7003;13506;50.852;20.632;2023-07-31T07:55:55;12.40;10.00;6.80
21358;PMS7003;13506;50.852;20.632;2023-07-31T07:58:23;8.80;8.80;6.00
21358;PMS7003;13506;50.852;20.632;2023-07-31T08:00:53;11.00;9.40;4.60
21358;PMS7003;13506;50.852;20.632;2023-07-31T08:03:21;12.60;9.80;5.80
21358;PMS7003;13506;50.852;20.632;2023-07-31T08:05:49;8.60;8.60;4.80
21358;PMS7003;13506;50.852;20.632;2023-07-31T08:08:17;12.00;9.20;5.00
21358;PMS7003;13506;50.852;20.632;2023-07-31T08:10:45;7.80;7.60;4.80
21358;PMS7003;13506;50.852;20.632;2023-07-31T08:13:13;7.40;7.00;3.20
21358;PMS7003;13506;50.852;20.632;2023-07-31T08:15:42;6.40;6.40;3.60
21358;PMS7003;13506;50.852;20.632;2023-07-31T08:18:11;7.40;7.40;4.00
21358;PMS7003;13506;50.852;20.632;2023-07-31T08:20:41;8.80;7.80;4.60
21358;PMS7003;13506;50.852;20.632;2023-07-31T08:23:09;6.20;6.20;3.00
21358;PMS7003;13506;50.852;20.632;2023-07-31T08:25:37;5.80;5.80;2.00
21358;PMS7003;13506;50.852;20.632;2023-07-31T08:28:06;6.00;6.00;2.80
21358;PMS7003;13506;50.852;20.632;2023-07-31T08:30:35;5.20;4.00;2.00
21358;PMS7003;13506;50.852;20.632;2023-07-31T08:33:03;7.00;6.20;3.40
21358;PMS7003;13506;50.852;20.632;2023-07-31T08:35:33;7.00;7.00;3.00
21358;PMS7003;13506;50.852;20.632;2023-07-31T08:38:01;5.80;5.20;3.00
21358;PMS7003;13506;50.852;20.632;2023-07-31T08:40:29;8.00;8.00;3.75
21358;PMS7003;13506;50.852;20.632;2023-07-31T08:42:57;8.40;7.20;4.00
21358;PMS7003;13506;50.852;20.632;2023-07-31T08:45:28;6.20;6.20;3.00
21358;PMS7003;13506;50.852;20.632;2023-07-31T08:47:57;7.80;6.40;3.80
21358;PMS7003;13506;50.852;20.632;2023-07-31T08:50:26;8.20;8.20;4.20
21358;PMS7003;13506;50.852;20.632;2023-07-31T08:52:56;9.60;8.00;4.00
21358;PMS7003;13506;50.852;20.632;2023-07-31T08:55:24;8.60;7.20;4.00
21358;PMS7003;13506;50.852;20.632;2023-07-31T08:57:52;8.00;7.20;3.00
21358;PMS7003;13506;50.852;20.632;2023-07-31T09:00:22;6.60;6.20;3.40
21358;PMS7003;13506;50.852;20.632;2023-07-31T09:02:52;11.00;8.60;4.20
21358;PMS7003;13506;50.852;20.632;2023-07-31T09:05:25;9.00;7.80;3.80
21358;PMS7003;13506;50.852;20.632;2023-07-31T09:07:57;9.20;7.40;4.80
21358;PMS7003;13506;50.852;20.632;2023-07-31T09:10:27;8.00;7.50;4.00
21358;PMS7003;13506;50.852;20.632;2023-07-31T09:12:55;9.20;8.20;4.60
21358;PMS7003;13506;50.852;20.632;2023-07-31T09:15:24;8.00;8.00;4.20
21358;PMS7003;13506;50.852;20.632;2023-07-31T09:17:58;8.20;7.40;4.40
21358;PMS7003;13506;50.852;20.632;2023-07-31T09:20:27;8.00;8.00;3.60
21358;PMS7003;13506;50.852;20.632;2023-07-31T09:22:58;8.80;8.00;4.00
21358;PMS7003;13506;50.852;20.632;2023-07-31T09:25:35;7.00;7.00;4.00
21358;PMS7003;13506;50.852;20.632;2023-07-31T09:28:04;10.00;9.80;5.20
21358;PMS7003;13506;50.852;20.632;2023-07-31T09:30:43;7.25;7.25;4.00
21358;PMS7003;13506;50.852;20.632;2023-07-31T09:33:13;8.25;8.00;4.00
21358;PMS7003;13506;50.852;20.632;2023-07-31T09:35:42;6.25;6.00;3.75
21358;PMS7003;13506;50.852;20.632;2023-07-31T09:38:12;6.40;6.00;3.00
21358;PMS7003;13506;50.852;20.632;2023-07-31T09:40:41;7.00;7.00;3.40
21358;PMS7003;13506;50.852;20.632;2023-07-31T09:43:11;9.00;7.50;3.75
21358;PMS7003;13506;50.852;20.632;2023-07-31T09:45:41;9.25;7.75;4.00
21358;PMS7003;13506;50.852;20.632;2023-07-31T09:48:11;12.25;9.25;4.00
21358;PMS7003;13506;50.852;20.632;2023-07-31T09:50:43;8.25;7.75;4.75
21358;PMS7003;13506;50.852;20.632;2023-07-31T09:53:13;9.00;9.00;5.00
21358;PMS7003;13506;50.852;20.632;2023-07-31T09:55:42;7.00;7.00;3.00
21358;PMS7003;13506;50.852;20.632;2023-07-31T09:58:11;8.00;8.00;4.00
21358;PMS7003;13506;50.852;20.632;2023-07-31T10:00:40;7.00;7.00;4.00
21358;PMS7003;13506;50.852;20.632;2023-07-31T10:03:08;7.20;6.20;3.00
21358;PMS7003;13506;50.852;20.632;2023-07-31T10:05:39;5.25;5.25;2.50
21358;PMS7003;13506;50.852;20.632;2023-07-31T10:08:09;6.20;5.00;2.80
21358;PMS7003;13506;50.852;20.632;2023-07-31T10:10:41;17.50;12.50;7.50
21358;PMS7003;13506;50.852;20.632;2023-07-31T10:13:10;8.60;8.00;3.40
21358;PMS7003;13506;50.852;20.632;2023-07-31T10:15:40;5.20;5.20;2.00
21358;PMS7003;13506;50.852;20.632;2023-07-31T10:18:09;4.40;4.40;2.40
21358;PMS7003;13506;50.852;20.632;2023-07-31T10:20:38;10.75;10.00;5.75
21358;PMS7003;13506;50.852;20.632;2023-07-31T10:23:07;7.20;7.20;4.00
21358;PMS7003;13506;50.852;20.632;2023-07-31T10:25:38;8.40;7.60;4.00
21358;PMS7003;13506;50.852;20.632;2023-07-31T10:28:06;6.00;5.20;2.60
21358;PMS7003;13506;50.852;20.632;2023-07-31T10:30:37;7.80;7.80;4.00
21358;PMS7003;13506;50.852;20.632;2023-07-31T10:33:06;8.40;6.00;3.00
21358;PMS7003;13506;50.852;20.632;2023-07-31T10:35:35;6.40;6.40;2.60
21358;PMS7003;13506;50.852;20.632;2023-07-31T10:38:11;7.60;4.80;2.60
21358;PMS7003;13506;50.852;20.632;2023-07-31T10:40:41;5.00;5.00;2.00
21358;PMS7003;13506;50.852;20.632;2023-07-31T10:43:15;5.60;5.00;2.00
21358;PMS7003;13506;50.852;20.632;2023-07-31T10:45:52;6.20;5.00;2.00
21358;PMS7003;13506;50.852;20.632;2023-07-31T10:48:21;5.80;5.80;2.60
21358;PMS7003;13506;50.852;20.632;2023-07-31T10:50:50;5.40;5.40;2.60
21358;PMS7003;13506;50.852;20.632;2023-07-31T10:53:22;9.40;8.00;5.00
21358;PMS7003;13506;50.852;20.632;2023-07-31T10:55:53;7.60;6.00;3.60
21358;PMS7003;13506;50.852;20.632;2023-07-31T10:58:26;4.60;4.60;1.00
21358;PMS7003;13506;50.852;20.632;2023-07-31T11:00:55;3.20;3.20;1.20
21358;PMS7003;13506;50.852;20.632;2023-07-31T11:03:24;4.40;4.40;2.00
21358;PMS7003;13506;50.852;20.632;2023-07-31T11:05:59;4.00;4.00;2.00
21358;PMS7003;13506;50.852;20.632;2023-07-31T11:08:29;5.80;4.00;2.00
21358;PMS7003;13506;50.852;20.632;2023-07-31T11:11:06;4.00;4.00;2.00
21358;PMS7003;13506;50.852;20.632;2023-07-31T11:13:39;3.00;3.00;1.00
21358;PMS7003;13506;50.852;20.632;2023-07-31T11:16:10;3.60;3.60;1.20
21358;PMS7003;13506;50.852;20.632;2023-07-31T11:18:41;3.75;3.75;1.00
21358;PMS7003;13506;50.852;20.632;2023-07-31T11:21:11;5.00;4.20;1.60
21358;PMS7003;13506;50.852;20.632;2023-07-31T11:23:40;5.25;5.25;2.00
21358;PMS7003;13506;50.852;20.632;2023-07-31T11:26:13;5.00;4.40;2.00
21358;PMS7003;13506;50.852;20.632;2023-07-31T11:28:42;3.80;3.60;1.20
21358;PMS7003;13506;50.852;20.632;2023-07-31T11:31:10;4.00;4.00;1.40
21358;PMS7003;13506;50.852;20.632;2023-07-31T11:33:38;4.00;4.00;1.00
21358;PMS7003;13506;50.852;20.632;2023-07-31T11:36:06;5.60;4.40;1.20
21358;PMS7003;13506;50.852;20.632;2023-07-31T11:38:42;4.00;4.00;1.20
21358;PMS7003;13506;50.852;20.632;2023-07-31T11:41:13;14.75;13.50;7.00
21358;PMS7003;13506;50.852;20.632;2023-07-31T11:43:43;12.00;10.25;5.00
21358;PMS7003;13506;50.852;20.632;2023-07-31T11:46:12;3.75;3.50;1.00
21358;PMS7003;13506;50.852;20.632;2023-07-31T11:48:41;6.75;5.00;2.00
21358;PMS7003;13506;50.852;20.632;2023-07-31T11:51:10;3.00;3.00;1.00
21358;PMS7003;13506;50.852;20.632;2023-07-31T11:53:40;5.25;4.00;1.00
21358;PMS7003;13506;50.852;20.632;2023-07-31T11:56:11;5.00;5.00;1.40
21358;PMS7003;13506;50.852;20.632;2023-07-31T11:58:44;3.50;3.50;1.25
21358;PMS7003;13506;50.852;20.632;2023-07-31T12:01:15;3.00;3.00;0.00
21358;PMS7003;13506;50.852;20.632;2023-07-31T12:03:45;3.80;3.80;1.00
21358;PMS7003;13506;50.852;20.632;2023-07-31T12:06:14;10.75;10.75;2.50
21358;PMS7003;13506;50.852;20.632;2023-07-31T12:08:42;4.00;3.20;1.00
21358;PMS7003;13506;50.852;20.632;2023-07-31T12:11:10;8.40;8.20;2.00
21358;PMS7003;13506;50.852;20.632;2023-07-31T12:13:38;7.20;6.00;2.00
21358;PMS7003;13506;50.852;20.632;2023-07-31T12:16:08;39.50;35.75;3.25
21358;PMS7003;13506;50.852;20.632;2023-07-31T12:18:36;3.20;3.20;1.00
21358;PMS7003;13506;50.852;20.632;2023-07-31T12:21:06;5.75;5.75;1.50
21358;PMS7003;13506;50.852;20.632;2023-07-31T12:23:37;3.40;3.40;1.00
21358;PMS7003;13506;50.852;20.632;2023-07-31T12:26:08;5.20;4.20;1.20
21358;PMS7003;13506;50.852;20.632;2023-07-31T12:28:40;4.80;4.20;2.00
21358;PMS7003;13506;50.852;20.632;2023-07-31T12:31:11;10.20;10.20;3.00
21358;PMS7003;13506;50.852;20.632;2023-07-31T12:33:43;3.00;3.00;1.00
21358;PMS7003;13506;50.852;20.632;2023-07-31T12:36:13;3.00;3.00;1.00
21358;PMS7003;13506;50.852;20.632;2023-07-31T12:38:42;3.40;3.40;0.80
21358;PMS7003;13506;50.852;20.632;2023-07-31T12:41:12;3.40;3.40;1.00
21358;PMS7003;13506;50.852;20.632;2023-07-31T12:43:41;4.80;4.60;1.40
21358;PMS7003;13506;50.852;20.632;2023-07-31T12:46:12;3.60;3.00;1.00
21358;PMS7003;13506;50.852;20.632;2023-07-31T12:48:40;5.20;4.60;2.00
21358;PMS7003;13506;50.852;20.632;2023-07-31T12:51:08;7.00;7.00;1.60
21358;PMS7003;13506;50.852;20.632;2023-07-31T12:53:36;11.25;11.00;2.25
21358;PMS7003;13506;50.852;20.632;2023-07-31T12:56:05;14.20;14.20;3.00
21358;PMS7003;13506;50.852;20.632;2023-07-31T12:58:32;5.40;5.40;1.00
21358;PMS7003;13506;50.852;20.632;2023-07-31T13:01:01;32.00;31.25;2.00
21358;PMS7003;13506;50.852;20.632;2023-07-31T13:03:30;9.00;8.40;3.00
21358;PMS7003;13506;50.852;20.632;2023-07-31T13:05:58;7.40;4.60;2.00
21358;PMS7003;13506;50.852;20.632;2023-07-31T13:08:26;3.40;3.40;0.80
21358;PMS7003;13506;50.852;20.632;2023-07-31T13:10:55;4.00;4.00;1.40
21358;PMS7003;13506;50.852;20.632;2023-07-31T13:13:22;5.00;4.20;1.00
21358;PMS7003;13506;50.852;20.632;2023-07-31T13:15:51;3.00;3.00;1.00
21358;PMS7003;13506;50.852;20.632;2023-07-31T13:18:19;3.00;3.00;1.00
21358;PMS7003;13506;50.852;20.632;2023-07-31T13:20:49;5.20;5.20;2.20
21358;PMS7003;13506;50.852;20.632;2023-07-31T13:23:17;19.00;19.00;4.00
21358;PMS7003;13506;50.852;20.632;2023-07-31T13:25:45;5.00;5.00;2.60
21358;PMS7003;13506;50.852;20.632;2023-07-31T13:28:13;5.20;4.00;1.00
21358;PMS7003;13506;50.852;20.632;2023-07-31T13:30:42;3.80;3.80;2.00
21358;PMS7003;13506;50.852;20.632;2023-07-31T13:33:10;4.80;3.00;0.80
21358;PMS7003;13506;50.852;20.632;2023-07-31T13:35:38;4.00;3.60;0.80
21358;PMS7003;13506;50.852;20.632;2023-07-31T13:38:07;6.20;3.60;1.20
21358;PMS7003;13506;50.852;20.632;2023-07-31T13:40:36;4.00;4.00;1.20
21358;PMS7003;13506;50.852;20.632;2023-07-31T13:43:04;8.20;6.00;2.00
21358;PMS7003;13506;50.852;20.632;2023-07-31T13:45:32;4.00;4.00;1.00
21358;PMS7003;13506;50.852;20.632;2023-07-31T13:48:00;45.50;38.75;3.75
21358;PMS7003;13506;50.852;20.632;2023-07-31T13:50:29;8.60;7.00;2.00
21358;PMS7003;13506;50.852;20.632;2023-07-31T13:52:57;7.40;6.80;2.00
21358;PMS7003;13506;50.852;20.632;2023-07-31T13:55:26;24.25;22.50;3.00
21358;PMS7003;13506;50.852;20.632;2023-07-31T13:57:54;20.25;16.00;6.50
21358;PMS7003;13506;50.852;20.632;2023-07-31T14:00:22;13.50;13.50;6.75
21358;PMS7003;13506;50.852;20.632;2023-07-31T14:02:50;7.60;7.60;2.00
21358;PMS7003;13506;50.852;20.632;2023-07-31T14:05:19;4.20;3.60;1.00
21358;PMS7003;13506;50.852;20.632;2023-07-31T14:07:47;22.00;20.00;2.50
21358;PMS7003;13506;50.852;20.632;2023-07-31T14:10:15;4.40;4.20;2.00
21358;PMS7003;13506;50.852;20.632;2023-07-31T14:12:44;4.00;4.00;1.40
21358;PMS7003;13506;50.852;20.632;2023-07-31T14:15:13;3.00;3.00;1.00